LEJR/XRY METAR and TAF weather

Enter ICAO airport designator
Station Type Date Time Source
LEJR METAR 2018/12/11 20:30 UTC NOAA

LEJR 112030Z 06002KT 8000 OVC050 14/14 Q1024


Station Type Date Time Source
LEJR Decoded METAR 2018/12/11 20:30 UTC NOAA

Jerez De La Fronteraaeropuerto, Spain (LEJR) 36-45N 006-04W 28M
Dec 11, 2018 - 03:30 PM EST / 2018.12.11 2030 UTC
Wind: from the ENE (060 degrees) at 2 MPH (2 KT):0
Visibility: 4 mile(s):0
Sky conditions: overcast
Temperature: 57 F (14 C)
Dew Point: 57 F (14 C)
Relative Humidity: 100%
Pressure (altimeter): 30.24 in. Hg (1024 hPa)
ob: LEJR 112030Z 06002KT 8000 OVC050 14/14 Q1024
cycle: 20

Station Type Date Time Source
LEJR TAF 2018/12/11 18:27 UTC NOAA

TAF LEJR 111700Z 1118/1218 17004KT 9999 FEW015 BKN040 TX18/1214Z TN09/1206Z PROB30
TEMPO 1118/1123 4000 RA BR BKN014
TEMPO 1123/1210 4000 BR BKN010 PROB30
TEMPO 1201/1209 0200 FG VV001


Example: see airport list